Time;durP1;ratioP1;P1;durP2;ratioP2;P2;SDS_P1;SDS_P2;PMS_P1;PMS_P2;Temp;Humidity;BMP_temperature;BMP_pressure;BME280_temperature;BME280_humidity;BME280_pressure;Samples;Min_cycle;Max_cycle;Signal;HPM_P1;HPM_P2
2022/01/16 00:04:09;;;;;;;16.65;9.00;;;;;;;-1.48;82.44;97339.38;1687422;85;21035;-80
2022/01/16 00:06:31;;;;;;;12.10;7.80;;;;;;;-1.48;82.54;97347.48;1686814;85;21111;-80
2022/01/16 00:08:57;;;;;;;15.38;8.23;;;;;;;-1.48;82.58;97356.41;1687941;85;21115;-80
2022/01/16 00:11:24;;;;;;;13.53;7.50;;;;;;;-1.49;82.59;97353.03;1688142;85;21465;-80
2022/01/16 00:13:50;;;;;;;14.53;8.50;;;;;;;-1.51;82.52;97363.77;1668926;85;21379;-80
2022/01/16 00:16:16;;;;;;;16.37;7.83;;;;;;;-1.53;82.60;97365.13;1687802;85;21020;-80
2022/01/16 00:18:49;;;;;;;15.70;8.83;;;;;;;-1.55;82.59;97365.67;1687911;85;21039;-81
2022/01/16 00:21:10;;;;;;;15.40;8.58;;;;;;;-1.56;82.58;97358.92;1699459;83;21028;-80
2022/01/16 00:23:36;;;;;;;14.75;8.08;;;;;;;-1.59;82.65;97350.63;1702791;84;21017;-80
2022/01/16 00:26:01;;;;;;;13.13;9.20;;;;;;;-1.61;82.41;97333.33;1703143;84;21387;-80
2022/01/16 00:28:27;;;;;;;15.80;8.40;;;;;;;-1.59;82.57;97340.44;1690562;84;20980;-80
2022/01/16 00:30:53;;;;;;;12.20;8.10;;;;;;;-1.57;82.66;97347.09;1687861;85;20984;-80
2022/01/16 00:33:19;;;;;;;19.55;9.50;;;;;;;-1.54;82.62;97326.98;1687681;85;21130;-80
2022/01/16 00:35:45;;;;;;;12.43;7.30;;;;;;;-1.51;82.56;97358.22;1687730;85;21079;-80
2022/01/16 00:38:11;;;;;;;16.20;7.40;;;;;;;-1.50;82.53;97329.72;1687959;85;21104;-80
2022/01/16 00:40:37;;;;;;;17.10;7.58;;;;;;;-1.52;82.56;97303.05;1687480;83;21468;-80
2022/01/16 00:43:03;;;;;;;15.32;7.67;;;;;;;-1.52;82.45;97286.48;1683800;85;20976;-80
2022/01/16 00:45:29;;;;;;;14.30;8.00;;;;;;;-1.54;82.46;97312.97;1671826;85;20953;-80
2022/01/16 00:47:55;;;;;;;12.73;7.62;;;;;;;-1.55;82.53;97307.50;1678206;85;21008;-80
2022/01/16 00:50:21;;;;;;;11.50;7.17;;;;;;;-1.58;82.58;97306.40;1678148;84;21383;-81
2022/01/16 00:52:47;;;;;;;15.13;7.62;;;;;;;-1.60;82.60;97320.50;1687391;85;20976;-80
2022/01/16 00:55:12;;;;;;;12.93;7.58;;;;;;;-1.61;82.59;97318.04;1667183;84;21027;-80
2022/01/16 00:57:38;;;;;;;10.13;6.75;;;;;;;-1.64;82.68;97304.98;1683649;85;21071;-80
2022/01/16 01:00:06;;;;;;;10.23;7.17;;;;;;;-1.67;82.71;97266.94;1683374;85;21035;-80
2022/01/16 01:02:32;;;;;;;14.83;7.08;;;;;;;-1.67;82.83;97282.68;1683139;85;21088;-80
2022/01/16 01:04:58;;;;;;;14.78;7.03;;;;;;;-1.68;82.92;97307.80;1683063;85;21036;-80
2022/01/16 01:07:24;;;;;;;13.08;8.75;;;;;;;-1.69;82.92;97299.33;1684214;85;21023;-80
2022/01/16 01:09:49;;;;;;;10.03;7.70;;;;;;;-1.70;83.01;97318.08;1684226;85;21355;-80
2022/01/16 01:12:27;;;;;;;12.43;7.55;;;;;;;-1.68;83.10;97335.38;1683324;85;20978;-80
2022/01/16 01:15:04;;;;;;;10.48;6.55;;;;;;;-1.62;83.12;97284.09;1682286;85;21059;-80
2022/01/16 01:17:20;;;;;;;12.85;7.22;;;;;;;-1.58;82.98;97277.91;1679983;85;21048;-80
2022/01/16 01:19:38;;;;;;;15.88;8.55;;;;;;;-1.60;82.75;97297.56;1680414;83;20985;-80
2022/01/16 01:22:05;;;;;;;11.93;7.15;;;;;;;-1.62;82.71;97279.45;1681988;84;20949;-80
2022/01/16 01:24:33;;;;;;;13.45;8.05;;;;;;;-1.61;82.81;97293.83;1683991;85;21023;-80
2022/01/16 01:27:12;;;;;;;12.03;6.45;;;;;;;-1.62;82.71;97309.58;1684221;85;21027;-80
2022/01/16 01:29:30;;;;;;;13.18;7.12;;;;;;;-1.59;82.80;97283.09;1659919;85;21403;-80
2022/01/16 01:31:57;;;;;;;9.73;7.33;;;;;;;-1.55;82.83;97299.86;1684278;85;20988;-80
2022/01/16 01:34:22;;;;;;;15.20;7.58;;;;;;;-1.53;82.73;97244.06;1683729;85;21513;-80
2022/01/16 01:36:49;;;;;;;11.55;6.42;;;;;;;-1.51;82.62;97171.33;1683591;85;21019;-80
2022/01/16 01:39:17;;;;;;;11.38;6.20;;;;;;;-1.49;82.46;97186.53;1683441;85;21083;-80
2022/01/16 01:41:43;;;;;;;12.55;6.47;;;;;;;-1.49;82.38;97180.98;1683508;85;21015;-80
2022/01/16 01:52:22;;;;;;;11.15;6.37;;;;;;;-1.48;82.41;97182.62;1682681;85;21032;-80
2022/01/16 01:54:48;;;;;;;14.10;6.58;;;;;;;-1.48;82.24;97200.45;1682127;85;21370;-80
2022/01/16 01:57:14;;;;;;;12.60;6.25;;;;;;;-1.48;82.17;97197.91;1682512;85;20997;-80
2022/01/16 01:59:39;;;;;;;12.15;6.95;;;;;;;-1.50;82.13;97190.81;1682747;85;20976;-80
2022/01/16 02:02:07;;;;;;;10.08;5.90;;;;;;;-1.50;82.19;97197.18;1682797;85;21384;-80
2022/01/16 02:04:33;;;;;;;11.95;5.87;;;;;;;-1.51;82.17;97190.44;1681989;85;21107;-80
2022/01/16 02:06:59;;;;;;;10.23;6.08;;;;;;;-1.49;82.19;97195.00;1682108;85;20992;-80
2022/01/16 02:09:25;;;;;;;6.05;4.92;;;;;;;-1.52;82.14;97165.41;1683357;85;21056;-80
2022/01/16 02:11:51;;;;;;;9.00;5.80;;;;;;;-1.55;82.14;97167.32;1683561;85;21313;-80
2022/01/16 02:14:47;;;;;;;8.93;5.47;;;;;;;-1.53;82.13;97178.25;1662331;85;21047;-80
2022/01/16 02:28:14;;;;;;;8.68;4.17;;;;;;;-1.63;81.74;97206.00;1665416;85;21399;-80
2022/01/16 02:36:07;;;;;;;6.33;3.40;;;;;;;-1.70;81.26;97219.16;1683536;85;21043;-80
2022/01/16 02:38:34;;;;;;;9.08;3.60;;;;;;;-1.71;81.35;97223.43;1683340;85;21009;-80
2022/01/16 02:41:03;;;;;;;4.15;2.62;;;;;;;-1.74;81.19;97221.06;1683426;85;21040;-80
2022/01/16 02:43:33;;;;;;;6.00;2.95;;;;;;;-1.76;81.02;97229.70;1683387;85;21004;-81
2022/01/16 02:46:35;;;;;;;5.15;2.92;;;;;;;-1.79;80.92;97210.73;1670717;83;21021;-80
2022/01/16 02:48:26;;;;;;;6.42;2.47;;;;;;;-1.84;80.66;97204.63;1672284;84;21021;-80
2022/01/16 02:50:53;;;;;;;3.00;2.00;;;;;;;-1.85;80.68;97215.27;1686326;83;21008;-80
2022/01/16 02:53:19;;;;;;;4.12;2.33;;;;;;;-1.83;80.58;97214.73;1681898;85;20989;-80
2022/01/16 02:55:45;;;;;;;6.90;3.72;;;;;;;-1.81;80.21;97207.83;1684236;84;21431;-80
2022/01/16 02:58:10;;;;;;;4.22;3.12;;;;;;;-1.84;80.08;97205.91;1673694;84;21731;-80
2022/01/16 03:00:36;;;;;;;3.17;2.35;;;;;;;-1.84;79.92;97196.53;1705952;83;21062;-80
2022/01/16 03:03:02;;;;;;;4.45;2.50;;;;;;;-1.84;80.02;97198.27;1706242;82;21362;-80
2022/01/16 03:05:28;;;;;;;3.98;2.12;;;;;;;-1.84;79.96;97204.18;1706325;84;20999;-80
2022/01/16 03:07:53;;;;;;;2.72;2.08;;;;;;;-1.85;79.88;97199.17;1704381;82;20984;-80
2022/01/16 03:12:48;;;;;;;2.87;2.25;;;;;;;-1.84;79.71;97199.08;1695961;84;20987;-80
2022/01/16 03:15:15;;;;;;;2.35;2.10;;;;;;;-1.87;79.68;97200.53;1695857;83;21406;-80
2022/01/16 03:21:53;;;;;;;2.55;2.00;;;;;;;-1.87;79.76;97191.62;1696179;82;21031;-80
2022/01/16 03:22:42;;;;;;;3.12;2.02;;;;;;;-1.89;79.40;97193.89;1676045;84;21054;-80
2022/01/16 03:25:09;;;;;;;2.50;2.30;;;;;;;-1.89;79.36;97190.06;1696344;83;20987;-80
2022/01/16 03:27:36;;;;;;;4.08;2.12;;;;;;;-1.87;79.42;97199.71;1696420;84;20988;-80
2022/01/16 03:30:03;;;;;;;3.70;2.75;;;;;;;-1.88;78.85;97196.34;1696255;84;21052;-80
2022/01/16 03:32:28;;;;;;;5.03;3.22;;;;;;;-1.88;78.60;97192.52;1696641;84;21048;-80
2022/01/16 03:34:54;;;;;;;3.47;2.47;;;;;;;-1.90;78.82;97182.88;1695976;84;21455;-80
2022/01/16 03:37:20;;;;;;;2.37;2.05;;;;;;;-1.94;78.83;97173.77;1696625;82;21031;-80
2022/01/16 03:39:46;;;;;;;3.30;2.83;;;;;;;-1.94;78.84;97173.77;1696514;83;21095;-80
2022/01/16 03:42:12;;;;;;;2.67;2.20;;;;;;;-1.93;78.76;97177.14;1696326;83;21068;-80
2022/01/16 03:44:38;;;;;;;2.52;1.75;;;;;;;-1.96;78.57;97176.02;1706771;83;20968;-80
2022/01/16 03:47:04;;;;;;;2.87;2.10;;;;;;;-1.99;78.37;97175.73;1702137;83;21417;-80
2022/01/16 03:49:30;;;;;;;2.40;1.90;;;;;;;-2.01;77.77;97176.28;1674346;83;21781;-80
2022/01/16 03:51:57;;;;;;;3.15;1.95;;;;;;;-2.02;77.80;97165.72;1695788;84;21023;-80
2022/01/16 03:54:30;;;;;;;2.87;2.15;;;;;;;-2.02;78.01;97161.09;1695584;84;20994;-80
2022/01/16 03:56:57;;;;;;;4.03;2.33;;;;;;;-1.99;78.04;97160.45;1690378;83;21016;-80
2022/01/16 03:59:22;;;;;;;3.27;2.40;;;;;;;-1.95;78.07;97153.48;1688572;85;20988;-80
2022/01/16 04:01:48;;;;;;;4.05;2.35;;;;;;;-1.95;78.08;97156.85;1688188;85;21046;-80
2022/01/16 04:04:14;;;;;;;3.12;2.40;;;;;;;-2.00;77.58;97156.27;1687537;85;21012;-80
2022/01/16 04:06:40;;;;;;;4.25;2.45;;;;;;;-2.01;77.45;97162.27;1688336;85;20999;-80
2022/01/16 04:09:05;;;;;;;4.58;3.85;;;;;;;-2.05;77.76;97153.62;1686437;85;21019;-80
2022/01/16 04:11:32;;;;;;;6.03;3.25;;;;;;;-2.07;77.88;97152.44;1688453;85;21350;-80
2022/01/16 04:14:09;;;;;;;5.25;3.10;;;;;;;-2.05;78.05;97151.08;1683047;85;20971;-81
2022/01/16 04:16:31;;;;;;;4.83;3.00;;;;;;;-2.03;78.02;97155.17;1678787;85;21452;-80
2022/01/16 04:18:56;;;;;;;5.05;2.98;;;;;;;-2.05;77.96;97156.98;1683781;85;21076;-80
2022/01/16 04:21:24;;;;;;;6.20;3.50;;;;;;;-2.06;78.05;97150.25;1690563;84;20995;-80
2022/01/16 04:23:50;;;;;;;5.03;3.37;;;;;;;-2.04;78.02;97152.71;1684734;83;21539;-80
2022/01/16 04:26:16;;;;;;;4.72;3.30;;;;;;;-2.04;77.91;97147.62;1678165;85;21009;-80
2022/01/16 04:28:42;;;;;;;5.17;3.20;;;;;;;-2.05;77.92;97151.89;1679266;85;21017;-80
2022/01/16 04:31:09;;;;;;;6.42;3.37;;;;;;;-2.06;77.91;97143.89;1688039;85;21448;-80
2022/01/16 04:33:35;;;;;;;3.85;2.83;;;;;;;-2.06;77.99;97145.61;1687886;84;22005;-80
2022/01/16 04:36:01;;;;;;;5.90;3.30;;;;;;;-2.09;78.06;97145.34;1687132;84;21486;-80
2022/01/16 04:38:27;;;;;;;4.70;2.80;;;;;;;-2.12;78.10;97151.84;1679451;85;21021;-80
2022/01/16 04:43:52;;;;;;;3.95;3.17;;;;;;;-2.14;77.89;97135.38;1683185;85;21016;-80
2022/01/16 04:46:24;;;;;;;4.50;3.50;;;;;;;-2.15;77.82;97135.47;1692874;83;21995;-80
2022/01/16 04:48:50;;;;;;;3.27;3.00;;;;;;;-2.17;77.79;97132.20;1687502;85;21003;-80
2022/01/16 04:51:17;;;;;;;2.90;2.65;;;;;;;-2.19;77.83;97128.92;1700095;83;20989;-80
2022/01/16 04:53:43;;;;;;;4.10;3.70;;;;;;;-2.19;77.79;97135.28;1702938;84;21398;-80
2022/01/16 04:56:09;;;;;;;3.92;2.95;;;;;;;-2.18;77.79;97128.01;1709799;82;21007;-80
2022/01/16 04:58:35;;;;;;;4.65;2.80;;;;;;;-2.18;77.66;97130.56;1716736;84;20963;-80
2022/01/16 05:01:02;;;;;;;4.05;2.90;;;;;;;-2.20;77.28;97117.91;1716371;84;21362;-80
2022/01/16 05:03:28;;;;;;;4.60;2.95;;;;;;;-2.21;77.14;97104.00;1716857;84;21397;-80
2022/01/16 05:05:54;;;;;;;3.37;2.50;;;;;;;-2.23;77.15;97100.27;1685715;82;21021;-80
2022/01/16 05:08:20;;;;;;;4.50;2.92;;;;;;;-2.25;77.07;97095.72;1704646;83;21038;-80
2022/01/16 05:10:46;;;;;;;3.92;2.70;;;;;;;-2.26;76.83;97095.81;1716540;83;21373;-80
2022/01/16 05:18:33;;;;;;;3.58;2.62;;;;;;;-2.28;77.07;97085.72;1675526;85;21526;-80
2022/01/16 05:20:59;;;;;;;7.10;3.58;;;;;;;-2.28;77.09;97084.86;1704754;83;20995;-81
2022/01/16 05:23:26;;;;;;;3.58;3.05;;;;;;;-2.27;77.16;97081.44;1716371;83;20993;-80
2022/01/16 05:25:52;;;;;;;7.47;3.95;;;;;;;-2.28;77.09;97075.53;1715280;83;21057;-80
2022/01/16 05:28:17;;;;;;;5.72;3.37;;;;;;;-2.26;77.35;97074.17;1690456;83;21429;-80
2022/01/16 05:30:43;;;;;;;4.70;3.75;;;;;;;-2.26;77.65;97077.53;1714835;83;20979;-80
2022/01/16 05:33:09;;;;;;;5.92;3.95;;;;;;;-2.22;77.92;97073.09;1716958;82;20938;-80
2022/01/16 05:35:35;;;;;;;4.90;3.00;;;;;;;-2.22;78.05;97067.99;1716447;83;21518;-80
2022/01/16 05:38:01;;;;;;;4.62;3.40;;;;;;;-2.20;78.15;97061.91;1716755;83;21034;-80
2022/01/16 05:40:27;;;;;;;4.47;2.85;;;;;;;-2.18;78.14;97056.27;1716257;83;21017;-80
2022/01/16 05:42:55;;;;;;;2.92;2.72;;;;;;;-2.19;77.81;97055.09;1711714;82;21004;-80
2022/01/16 05:45:22;;;;;;;4.60;2.77;;;;;;;-2.20;77.67;97048.36;1698826;84;21055;-80
2022/01/16 05:47:47;;;;;;;3.15;2.85;;;;;;;-2.22;77.69;97047.17;1680397;84;20992;-80
2022/01/16 05:50:13;;;;;;;6.00;2.95;;;;;;;-2.22;77.50;97045.08;1701351;83;21392;-80
2022/01/16 05:52:40;;;;;;;4.50;3.15;;;;;;;-2.23;77.13;97051.90;1694432;83;21081;-80
2022/01/16 05:55:07;;;;;;;3.83;2.80;;;;;;;-2.18;77.22;97052.91;1688105;85;21364;-80
2022/01/16 05:57:33;;;;;;;3.98;2.95;;;;;;;-2.19;76.94;97058.45;1685158;83;21017;-80
2022/01/16 05:59:59;;;;;;;4.30;3.20;;;;;;;-2.18;76.76;97051.63;1681482;85;21038;-80
2022/01/16 06:02:26;;;;;;;3.58;2.80;;;;;;;-2.18;76.90;97055.00;1682521;84;20992;-80
2022/01/16 06:04:52;;;;;;;5.72;3.02;;;;;;;-2.19;76.71;97052.54;1683300;85;21473;-80
2022/01/16 06:07:18;;;;;;;2.72;2.52;;;;;;;-2.17;76.59;97056.63;1683653;85;21006;-80
2022/01/16 06:09:44;;;;;;;5.47;2.67;;;;;;;-2.16;76.56;97051.09;1684359;85;21055;-80
2022/01/16 06:12:10;;;;;;;2.75;2.50;;;;;;;-2.16;76.08;97058.27;1684221;85;21319;-80
2022/01/16 06:14:36;;;;;;;4.37;2.95;;;;;;;-2.13;76.27;97049.63;1684270;85;21347;-80
2022/01/16 06:17:03;;;;;;;3.55;2.50;;;;;;;-2.12;76.12;97049.58;1683859;85;21031;-80
2022/01/16 06:19:29;;;;;;;4.22;2.45;;;;;;;-2.13;76.19;97051.73;1682823;85;21032;-80
2022/01/16 06:21:54;;;;;;;6.95;3.72;;;;;;;-2.15;76.09;97043.81;1683227;85;21513;-80
2022/01/16 06:24:20;;;;;;;2.62;2.40;;;;;;;-2.16;75.97;97034.53;1682980;85;21047;-80
2022/01/16 06:26:46;;;;;;;3.47;2.70;;;;;;;-2.18;75.90;97037.17;1683396;85;20983;-80
2022/01/16 06:29:12;;;;;;;4.03;2.77;;;;;;;-2.18;75.93;97032.53;1662085;85;21040;-80
2022/01/16 06:31:38;;;;;;;4.37;2.58;;;;;;;-2.13;76.02;97024.17;1683473;85;21007;-80
2022/01/16 06:34:05;;;;;;;3.50;2.70;;;;;;;-2.08;76.09;97015.02;1683917;85;21003;-80
2022/01/16 06:36:31;;;;;;;3.17;2.80;;;;;;;-2.07;75.78;97007.29;1684089;85;21024;-80
2022/01/16 06:38:57;;;;;;;3.75;2.80;;;;;;;-2.09;75.37;97007.83;1684352;85;21020;-80
2022/01/16 06:41:23;;;;;;;3.50;3.15;;;;;;;-2.10;75.41;97011.29;1684192;85;21047;-80
2022/01/16 06:43:48;;;;;;;4.47;2.58;;;;;;;-2.10;75.34;97008.75;1684375;85;21394;-80
2022/01/16 06:46:14;;;;;;;5.33;3.15;;;;;;;-2.10;74.84;97003.66;1684129;85;21039;-80
2022/01/16 06:48:42;;;;;;;5.20;2.60;;;;;;;-2.09;75.10;96999.38;1684399;85;20997;-80
2022/01/16 06:51:08;;;;;;;3.15;2.45;;;;;;;-2.05;74.83;97004.65;1684278;85;20988;-80
2022/01/16 06:53:34;;;;;;;3.25;2.52;;;;;;;-2.03;74.72;97007.47;1662587;85;21019;-80
2022/01/16 06:56:00;;;;;;;2.70;2.50;;;;;;;-2.02;74.72;97001.92;1684125;85;20988;-80
2022/01/16 06:58:26;;;;;;;2.80;2.60;;;;;;;-2.01;74.47;97006.11;1694258;83;21031;-80
2022/01/16 07:00:52;;;;;;;2.70;2.50;;;;;;;;;;1698892;84;21039;-80
2022/01/16 07:03:18;;;;;;;2.67;2.47;;;;;;;-1.99;74.21;97003.01;1696487;83;20972;-80
2022/01/16 07:05:43;;;;;;;3.30;2.80;;;;;;;-1.99;74.17;96998.73;1695751;83;21513;-80
2022/01/16 07:08:09;;;;;;;2.77;2.33;;;;;;;-1.95;74.39;96989.21;1683931;84;20983;-80
2022/01/16 07:10:35;;;;;;;3.65;2.80;;;;;;;-1.92;73.99;96989.84;1647493;86;21070;-80
2022/01/16 07:13:02;;;;;;;3.20;2.77;;;;;;;-1.92;73.79;96986.02;1668750;86;21508;-80
2022/01/16 07:15:28;;;;;;;3.12;2.50;;;;;;;-1.92;74.23;96986.02;1668682;86;21015;-80
2022/01/16 07:17:53;;;;;;;3.62;2.75;;;;;;;-1.88;74.08;96986.66;1668604;86;21104;-80
2022/01/16 07:20:19;;;;;;;3.72;2.95;;;;;;;-1.86;74.07;96988.20;1668588;86;21015;-80
2022/01/16 07:22:45;;;;;;;3.30;2.40;;;;;;;-1.83;73.98;96993.11;1668731;85;21464;-80
2022/01/16 07:25:12;;;;;;;3.65;2.67;;;;;;;-1.78;74.16;96985.67;1668616;86;21066;-80
2022/01/16 07:27:38;;;;;;;4.22;2.62;;;;;;;-1.76;74.04;96975.75;1647657;86;21494;-80
2022/01/16 07:30:05;;;;;;;5.60;3.35;;;;;;;-1.73;73.69;96976.83;1647558;86;21015;-80
2022/01/16 07:32:31;;;;;;;2.55;2.35;;;;;;;-1.72;73.42;96986.56;1668430;85;21098;-80
2022/01/16 07:34:56;;;;;;;2.70;2.50;;;;;;;-1.70;73.44;96979.65;1668574;86;21528;-80
2022/01/16 07:37:22;;;;;;;2.75;2.45;;;;;;;-1.69;73.56;96985.10;1679150;83;20971;-80
2022/01/16 07:39:48;;;;;;;5.87;3.77;;;;;;;-1.65;73.77;96986.09;1696601;84;20971;-80
2022/01/16 07:42:14;;;;;;;5.03;2.83;;;;;;;-1.60;73.48;96985.84;1696709;84;21374;-80
2022/01/16 07:44:40;;;;;;;3.42;2.42;;;;;;;-1.58;73.53;96985.29;1696527;84;20979;-80
2022/01/16 07:47:06;;;;;;;2.87;2.58;;;;;;;-1.58;73.35;96981.02;1696639;84;21030;-80
2022/01/16 07:49:31;;;;;;;3.25;2.60;;;;;;;-1.57;73.12;96976.73;1696706;83;21075;-80
2022/01/16 07:51:57;;;;;;;2.52;2.30;;;;;;;-1.53;73.15;96970.08;1696754;84;21433;-80
2022/01/16 07:54:23;;;;;;;3.40;2.70;;;;;;;-1.51;73.53;96968.25;1696808;83;21012;-80
2022/01/16 07:56:50;;;;;;;2.83;2.50;;;;;;;-1.50;73.07;96975.44;1674691;84;20985;-80
2022/01/16 07:59:16;;;;;;;3.58;2.50;;;;;;;-1.47;72.65;96972.70;1688841;85;20988;-80
2022/01/16 08:01:43;;;;;;;3.42;2.40;;;;;;;-1.44;72.47;96974.27;1688443;85;21055;-80
2022/01/16 08:04:09;;;;;;;2.15;1.92;;;;;;;-1.40;72.74;96978.26;1681143;85;21039;-80
2022/01/16 08:06:34;;;;;;;2.87;2.10;;;;;;;-1.34;72.01;96965.13;1687508;83;21470;-80
2022/01/16 08:09:00;;;;;;;2.42;2.25;;;;;;;-1.32;72.58;96967.94;1688352;85;21035;-81
2022/01/16 08:11:26;;;;;;;2.77;2.30;;;;;;;-1.31;72.69;96969.58;1688693;85;21000;-80
2022/01/16 08:13:52;;;;;;;4.30;2.17;;;;;;;-1.27;72.51;96962.58;1688691;85;21039;-80
2022/01/16 08:16:17;;;;;;;4.20;2.20;;;;;;;-1.24;72.25;96958.56;1688417;85;21502;-81
2022/01/16 08:18:43;;;;;;;3.17;2.37;;;;;;;-1.20;71.95;96960.00;1688747;85;20968;-80
2022/01/16 08:21:10;;;;;;;3.47;2.45;;;;;;;-1.19;71.99;96949.34;1688307;85;21028;-80
2022/01/16 08:23:36;;;;;;;3.58;2.47;;;;;;;-1.18;72.38;96940.31;1688662;85;21068;-80
2022/01/16 08:26:04;;;;;;;5.72;2.70;;;;;;;-1.15;71.92;96943.13;1687353;85;20968;-80
2022/01/16 08:28:29;;;;;;;2.35;2.10;;;;;;;-1.17;71.53;96951.34;1688951;85;21399;-80
2022/01/16 08:30:55;;;;;;;3.15;2.25;;;;;;;-1.14;70.62;96941.79;1688970;85;20975;-80
2022/01/16 08:33:21;;;;;;;3.62;2.60;;;;;;;-1.12;72.36;96943.78;1688521;85;20983;-80
2022/01/16 08:35:47;;;;;;;2.67;2.30;;;;;;;-1.11;71.93;96947.14;1688622;85;21008;-80
2022/01/16 08:38:12;;;;;;;2.40;2.20;;;;;;;-1.09;71.45;96946.13;1688661;85;21027;-80
2022/01/16 08:40:38;;;;;;;6.35;5.78;;;;;;;-1.06;71.65;96937.47;1688729;85;21016;-80
2022/01/16 08:43:08;;;;;;;3.33;2.62;;;;;;;-1.07;71.80;96939.66;1672430;85;20976;-80
2022/01/16 08:45:32;;;;;;;3.77;2.55;;;;;;;-1.04;70.51;96927.52;1661085;86;21023;-80
2022/01/16 08:47:57;;;;;;;5.35;3.77;;;;;;;-1.02;72.16;96922.33;1660735;86;21344;-80
2022/01/16 08:50:23;;;;;;;4.92;3.08;;;;;;;-1.00;70.55;96922.58;1661139;86;20992;-80
2022/01/16 08:52:49;;;;;;;3.42;2.42;;;;;;;-0.99;71.15;96927.22;1665830;85;20977;-80
2022/01/16 08:55:14;;;;;;;3.37;2.50;;;;;;;-0.98;71.34;96917.38;1685870;85;21097;-80
2022/01/16 08:57:40;;;;;;;3.60;3.05;;;;;;;-0.98;71.01;96913.55;1684339;85;21456;-80
2022/01/16 09:00:07;;;;;;;4.53;2.95;;;;;;;-0.95;71.28;96914.66;1686506;84;21000;-80
2022/01/16 09:02:33;;;;;;;4.10;2.60;;;;;;;-0.88;70.75;96909.97;1686603;85;20984;-80
2022/01/16 09:04:59;;;;;;;5.17;3.10;;;;;;;-0.87;70.53;96913.70;1686557;85;21040;-80
2022/01/16 09:07:25;;;;;;;5.45;3.50;;;;;;;-0.81;70.00;96915.88;1686578;85;21067;-81
2022/01/16 09:09:51;;;;;;;4.72;3.08;;;;;;;-0.75;69.57;96917.20;1686904;85;21039;-80
2022/01/16 09:12:16;;;;;;;5.22;3.12;;;;;;;-0.70;69.10;96910.06;1686814;85;21378;-80
2022/01/16 09:14:42;;;;;;;4.92;3.20;;;;;;;-0.69;69.58;96904.84;1687001;85;21020;-80
2022/01/16 09:17:08;;;;;;;6.62;3.72;;;;;;;-0.59;69.40;96901.71;1686867;85;20992;-80
2022/01/16 09:19:34;;;;;;;3.08;2.75;;;;;;;-0.59;69.40;96901.71;1686827;85;21025;-80
2022/01/16 09:22:00;;;;;;;4.10;3.15;;;;;;;-0.52;69.29;96896.09;1667087;85;21032;-80
2022/01/16 09:24:26;;;;;;;3.33;2.80;;;;;;;-0.46;68.95;96886.77;1687093;85;21395;-80
2022/01/16 09:26:54;;;;;;;3.40;2.75;;;;;;;-0.42;69.64;96881.81;1687050;85;21015;-80
2022/01/16 09:29:19;;;;;;;5.67;3.42;;;;;;;-0.33;69.08;96868.87;1686773;85;21435;-80
2022/01/16 09:31:45;;;;;;;5.05;3.30;;;;;;;-0.25;69.26;96869.20;1686744;85;21003;-81
2022/01/16 09:34:10;;;;;;;4.17;2.83;;;;;;;-0.18;69.35;96870.86;1686860;85;21051;-80
2022/01/16 09:36:37;;;;;;;4.00;2.83;;;;;;;-0.14;68.84;96878.24;1686819;85;21438;-80
2022/01/16 09:39:03;;;;;;;6.12;3.70;;;;;;;-0.03;68.74;96868.55;1686702;85;20988;-80
2022/01/16 09:41:28;;;;;;;6.37;4.45;;;;;;;0.06;68.06;96869.22;1686712;85;20984;-81
2022/01/16 09:43:54;;;;;;;5.87;5.15;;;;;;;0.11;68.33;96862.05;1686801;85;21494;-80
2022/01/16 09:46:21;;;;;;;8.98;5.42;;;;;;;0.18;68.72;96856.06;1687024;85;20984;-80
2022/01/16 09:48:46;;;;;;;10.88;6.25;;;;;;;0.20;68.00;96847.37;1686916;85;21048;-80
2022/01/16 09:51:12;;;;;;;19.10;10.05;;;;;;;0.27;67.91;96854.95;1686848;85;21358;-80
2022/01/16 09:53:42;;;;;;;15.40;8.73;;;;;;;0.35;68.17;96850.59;1686863;85;21017;-80
2022/01/16 09:56:09;;;;;;;23.10;12.68;;;;;;;0.35;68.19;96854.89;1686769;83;21008;-80
2022/01/16 09:58:35;;;;;;;20.20;12.98;;;;;;;0.35;68.21;96846.77;1665406;85;21048;-80
2022/01/16 10:01:01;;;;;;;28.80;15.65;;;;;;;0.38;68.44;96844.45;1713916;84;21408;-80
2022/01/16 10:03:40;;;;;;;30.90;17.23;;;;;;;0.40;68.45;96837.02;1714009;83;20946;-80
2022/01/16 10:06:19;;;;;;;33.42;18.85;;;;;;;0.43;68.16;96830.87;1709323;84;20987;-80
2022/01/16 10:08:45;;;;;;;44.35;24.30;;;;;;;0.47;68.19;96829.72;1709424;84;20963;-80
2022/01/16 10:11:28;;;;;;;50.50;25.25;;;;;;;0.52;67.33;96826.41;1709799;83;20974;-80
2022/01/16 10:14:09;;;;;;;50.88;24.92;;;;;;;0.59;68.38;96820.73;1709812;84;20990;-80
2022/01/16 10:16:32;;;;;;;54.08;26.37;;;;;;;0.65;67.98;96818.22;1708644;84;21403;-81
2022/01/16 10:18:59;;;;;;;47.33;25.68;;;;;;;0.71;68.52;96807.53;1709573;84;21425;-81
2022/01/16 10:21:39;;;;;;;44.33;22.05;;;;;;;0.74;68.73;96800.91;1709364;84;21093;-81
2022/01/16 10:24:26;;;;;;;71.17;31.40;;;;;;;0.81;68.95;96800.84;1708642;83;20987;-80
2022/01/16 10:27:17;;;;;;;78.20;33.78;;;;;;;0.90;67.95;96784.80;1709422;84;21063;-81
2022/01/16 10:29:51;;;;;;;36.65;17.07;;;;;;;1.00;67.65;96782.86;1709579;84;20959;-81
2022/01/16 10:32:31;;;;;;;37.60;16.75;;;;;;;1.11;67.28;96772.16;1709660;84;21038;-81
2022/01/16 10:35:20;;;;;;;28.10;13.22;;;;;;;1.22;67.27;96773.12;1709644;84;21018;-81
2022/01/16 10:37:51;;;;;;;26.85;14.18;;;;;;;1.29;67.23;96775.56;1709349;84;21412;-81
2022/01/16 10:40:38;;;;;;;19.77;9.60;;;;;;;1.33;66.41;96770.58;1709564;83;20993;-81
2022/01/16 10:43:06;;;;;;;26.25;13.65;;;;;;;1.37;67.10;96767.67;1702806;84;20978;-81
2022/01/16 10:45:32;;;;;;;27.15;14.53;;;;;;;1.43;67.39;96773.59;1709392;84;20978;-81
2022/01/16 10:48:00;;;;;;;17.52;9.30;;;;;;;1.49;67.61;96773.16;1709641;84;20963;-81
2022/01/16 10:50:39;;;;;;;43.63;25.50;;;;;;;1.54;67.16;96782.23;1709662;83;21019;-81
2022/01/16 10:53:15;;;;;;;36.90;21.70;;;;;;;1.59;67.09;96783.97;1709962;82;21244;-81
2022/01/16 10:55:51;;;;;;;35.17;19.65;;;;;;;1.68;68.16;96777.69;1707999;82;21421;-81
2022/01/16 10:58:21;;;;;;;20.57;11.22;;;;;;;1.76;68.65;96781.75;1703694;84;21032;-81
2022/01/16 11:01:00;;;;;;;58.40;34.03;;;;;;;1.76;69.01;96779.19;1695234;84;21051;-81
2022/01/16 11:03:26;;;;;;;57.23;31.45;;;;;;;1.83;68.29;96772.33;1696385;84;20999;-81
2022/01/16 11:05:51;;;;;;;59.98;32.65;;;;;;;1.92;68.18;96781.85;1675147;84;21040;-81
2022/01/16 11:08:22;;;;;;;66.55;38.20;;;;;;;2.01;68.30;96782.44;1696825;83;20972;-81
2022/01/16 11:10:51;;;;;;;61.23;34.95;;;;;;;2.06;67.06;96782.88;1696597;83;21020;-81
2022/01/16 11:13:19;;;;;;;55.90;32.42;;;;;;;2.12;68.01;96776.02;1696694;84;21019;-81
2022/01/16 11:15:52;;;;;;;61.13;33.53;;;;;;;2.16;69.03;96777.41;1696513;84;21480;-81
2022/01/16 11:18:20;;;;;;;58.68;34.27;;;;;;;2.21;67.89;96775.75;1696737;84;20994;-81
2022/01/16 11:20:55;;;;;;;56.20;30.75;;;;;;;2.24;69.17;96775.50;1696801;82;21417;-81
2022/01/16 11:23:29;;;;;;;56.42;32.83;;;;;;;2.26;68.72;96768.50;1673666;85;21151;-81
2022/01/16 11:25:44;;;;;;;60.58;35.83;;;;;;;2.30;69.58;96766.06;1692758;83;20973;-81
2022/01/16 11:28:16;;;;;;;63.08;35.17;;;;;;;2.33;69.85;96763.25;1696477;84;21047;-81
2022/01/16 11:30:47;;;;;;;67.80;36.00;;;;;;;2.38;69.74;96764.51;1696964;82;21431;-81
2022/01/16 11:33:17;;;;;;;65.42;40.00;;;;;;;2.45;70.01;96758.91;1696665;84;21079;-81
2022/01/16 11:35:48;;;;;;;65.00;38.05;;;;;;;2.44;70.57;96761.10;1696511;82;21019;-81
2022/01/16 11:38:13;;;;;;;63.38;36.25;;;;;;;2.40;70.31;96761.81;1696814;83;21448;-81
2022/01/16 11:40:45;;;;;;;63.65;34.53;;;;;;;2.38;71.00;96752.97;1696817;83;21031;-81
2022/01/16 11:43:33;;;;;;;57.58;34.83;;;;;;;2.34;71.06;96755.44;1696466;84;20983;-81
2022/01/16 11:46:09;;;;;;;67.80;35.78;;;;;;;2.36;69.58;96757.41;1696625;84;21003;-81
2022/01/16 11:48:42;;;;;;;63.87;35.68;;;;;;;2.40;69.92;96757.50;1696808;84;21008;-81
2022/01/16 11:51:36;;;;;;;58.52;34.35;;;;;;;2.37;70.25;96748.78;1696545;83;21394;-81
2022/01/16 11:54:10;;;;;;;56.10;30.40;;;;;;;2.38;70.55;96752.97;1696474;84;21015;-81
2022/01/16 11:56:45;;;;;;;47.23;27.22;;;;;;;2.39;70.68;96757.16;1682969;83;21355;-81
2022/01/16 11:59:21;;;;;;;46.50;24.63;;;;;;;2.41;70.49;96754.47;1679061;85;21135;-81
2022/01/16 12:02:03;;;;;;;39.70;24.45;;;;;;;2.39;70.50;96753.31;1688658;85;20948;-81
2022/01/16 12:04:36;;;;;;;38.67;22.93;;;;;;;2.43;70.05;96759.47;1688825;85;20969;-81
2022/01/16 12:07:23;;;;;;;39.03;22.85;;;;;;;2.47;69.80;96760.88;1687337;85;21067;-81
2022/01/16 12:09:57;;;;;;;36.68;19.35;;;;;;;2.46;69.23;96766.95;1661818;85;20980;-81
2022/01/16 12:12:27;;;;;;;33.90;19.77;;;;;;;2.45;68.84;96760.20;1686115;85;21734;-81
2022/01/16 12:15:17;;;;;;;37.93;21.15;;;;;;;2.41;68.35;96750.16;1686569;85;21053;-81